Who's Online

We have 3 guests online

Aviation WX

[source: ADDS]
METAR
KIAD 311852Z 04004KT 10SM FEW030 BKN047 OVC055 12/02 A2988 RMK AO2 SLP119 T01170017 =
TAF
KIAD 311720Z 3118/0124 10004KT P6SM BKN050 FM010500 03004KT P6SM OVC050 FM011300 35009KT P6SM OVC040 FM011500 35012KT P6SM OVC030 FM011800 35013KT 3SM -SHRA BR OVC015 FM012100 34013G21KT 3SM -RA BR BKN015 =
SR / SS: 01:17 / 11:54 UTC (Washington-Dulles 2014-10-31)

JoomlaWatch Agent

Home Products and Services

This section describes Multilink Systems products and services

 

 

Under construction Please Standby